Meteorología y climatología de Navarra
Datos de la estación - Meteo Navarra

Estación de Carcastillo (La Oliva) GN

Altitud 343 m.


Datos desde el 15/01/2020 hasta el 16/01/2020 en horario solar
Los datos son PROVISIONALES

Anterior Página 1 de 1 Siguiente Descargar: Formato para Excel 2000 o superior   Formato csv   Formato para OpenOffice Calc
Fecha Temperatura Humedad relativa Radiación global Insolación Precipitación Vel. viento 10 m Vel. viento 10 m Dir. viento 10 m
ºC % W/m² s l/m² m/s km/h º
15/01/2020 0:00 0.0 90 0.0 0 0.0 1.4 5.1 64
15/01/2020 0:10 -0.2 90 0.0 0 0.0 1.2 4.2 63
15/01/2020 0:20 -0.6 90 0.0 0 0.0 1.9 6.8 51
15/01/2020 0:30 -0.9 91 0.0 0 0.0 1.5 5.4 65
15/01/2020 0:40 -0.6 93 0.0 0 0.0 2.3 8.3 84
15/01/2020 0:50 -0.3 93 0.0 0 0.0 2.1 7.7 54
15/01/2020 1:00 -0.3 92 0.0 0 0.0 1.3 4.6 71
15/01/2020 1:10 0.5 91 0.0 0 0.0 0.5 1.7 44
15/01/2020 1:20 1.2 88 0.0 0 0.0 0.6 2.3 19
15/01/2020 1:30 1.0 87 0.0 0 0.0 1.2 4.3 294
15/01/2020 1:40 1.4 87 0.0 0 0.0 2.1 7.5 289
15/01/2020 1:50 1.8 85 0.0 0 0.0 0.8 2.9 351
15/01/2020 2:00 1.5 85 0.0 0 0.0 1.9 6.7 81
15/01/2020 2:10 1.5 86 0.0 0 0.0 3.1 11.2 99
15/01/2020 2:20 1.5 86 0.0 0 0.0 3.5 12.7 119
15/01/2020 2:30 2.4 84 0.0 0 0.0 3.9 13.9 127
15/01/2020 2:40 2.4 83 0.0 0 0.0 4.1 14.6 130
15/01/2020 2:50 2.5 83 0.0 0 0.0 3.5 12.6 134
15/01/2020 3:00 3.0 81 0.0 0 0.0 3.5 12.7 133
15/01/2020 3:10 3.7 79 0.0 0 0.0 3.6 12.9 140
15/01/2020 3:20 3.8 77 0.0 0 0.0 3.7 13.2 138
15/01/2020 3:30 3.7 78 0.0 0 0.0 3.6 13.0 133
15/01/2020 3:40 3.4 78 0.0 0 0.0 2.7 9.5 141
15/01/2020 3:50 4.5 74 0.0 0 0.0 3.1 11.3 159
15/01/2020 4:00 5.1 70 0.0 0 0.0 4.2 14.9 146
15/01/2020 4:10 4.6 72 0.0 0 0.0 3.7 13.4 130
15/01/2020 4:20 3.8 75 0.0 0 0.0 3.6 13.0 134
15/01/2020 4:30 3.6 76 0.0 0 0.0 4.4 15.9 132
15/01/2020 4:40 3.4 77 0.0 0 0.0 4.1 14.8 134
15/01/2020 4:50 3.1 78 0.0 0 0.0 2.7 9.6 101
15/01/2020 5:00 2.8 80 0.0 0 0.0 3.0 10.7 115
15/01/2020 5:10 2.7 80 0.0 0 0.0 4.1 14.6 128
15/01/2020 5:20 2.4 81 0.0 0 0.0 2.7 9.5 87
15/01/2020 5:30 2.5 82 0.0 0 0.0 3.4 12.2 110
15/01/2020 5:40 2.8 80 0.0 0 0.0 3.5 12.5 118
15/01/2020 5:50 2.3 82 0.0 0 0.0 3.0 10.9 120
15/01/2020 6:00 2.4 82 0.0 0 0.0 3.0 10.7 130
15/01/2020 6:10 3.2 79 0.0 0 0.0 4.0 14.3 137
15/01/2020 6:20 3.7 77 0.0 0 0.0 4.5 16.3 142
15/01/2020 6:30 4.1 75 0.0 0 0.0 3.8 13.8 132
15/01/2020 6:40 3.5 77 0.0 0 0.0 2.6 9.3 128
15/01/2020 6:50 3.4 78 0.0 0 0.0 2.8 10.2 134
15/01/2020 7:00 3.6 78 0.0 0 0.0 2.6 9.3 127
15/01/2020 7:10 3.1 79 0.0 0 0.0 2.2 7.8 110
15/01/2020 7:20 2.7 81 0.0 0 0.0 2.6 9.4 88
15/01/2020 7:30 2.9 82 0.0 0 0.0 2.9 10.6 107
15/01/2020 7:40 3.4 81 0.0 0 0.0 3.3 11.9 132
15/01/2020 7:50 3.5 80 18.0 0 0.0 3.3 11.9 107
15/01/2020 8:00 3.2 80 45.5 536 0.0 3.0 10.8 99
15/01/2020 8:10 3.1 82 74.6 600 0.0 2.5 8.9 123
15/01/2020 8:20 4.1 80 97.6 600 0.0 3.1 11.1 135
15/01/2020 8:30 4.6 77 108.2 600 0.0 3.3 11.9 130
15/01/2020 8:40 4.6 77 108.5 600 0.0 3.1 11.3 135
15/01/2020 8:50 4.8 77 78.0 82 0.0 3.3 12.0 135
15/01/2020 9:00 4.8 77 63.1 0 0.0 3.1 11.3 114
15/01/2020 9:10 5.2 78 60.8 0 0.0 3.6 13.0 110
15/01/2020 9:20 5.7 76 58.4 0 0.0 3.2 11.6 107
15/01/2020 9:30 5.9 76 53.7 0 0.0 2.4 8.5 114
15/01/2020 9:40 5.8 76 64.4 0 0.0 3.0 10.6 72
15/01/2020 9:50 5.4 77 81.4 0 0.0 2.7 9.6 79
15/01/2020 10:00 5.4 78 82.2 0 0.0 2.4 8.5 74
15/01/2020 10:10 5.7 78 64.4 0 0.0 1.7 6.0 76
15/01/2020 10:20 6.0 77 76.4 0 0.0 1.8 6.4 79
15/01/2020 10:30 6.3 76 99.0 0 0.0 1.5 5.3 86
15/01/2020 10:40 6.6 75 109.2 0 0.0 1.9 6.9 105
15/01/2020 10:50 6.9 76 133.6 0 0.0 2.2 7.9 127
15/01/2020 11:00 7.8 69 157.0 0 0.0 3.5 12.7 154
15/01/2020 11:10 8.4 66 105.1 0 0.0 3.8 13.5 156
15/01/2020 11:20 8.4 65 100.0 0 0.0 4.1 14.7 149
15/01/2020 11:30 8.3 66 81.5 0 0.0 3.4 12.1 142
15/01/2020 11:40 8.4 66 99.6 0 0.0 2.4 8.7 137
15/01/2020 11:50 8.6 67 120.9 0 0.0 1.4 5.1 133
15/01/2020 12:00 8.7 67 174.7 56 0.0 1.8 6.5 123
15/01/2020 12:10 8.8 67 209.9 18 0.0 3.0 10.8 141
15/01/2020 12:20 9.1 65 337.9 456 0.0 3.2 11.5 139
15/01/2020 12:30 9.6 64 324.4 516 0.0 3.2 11.4 117
15/01/2020 12:40 9.7 63 260.7 298 0.0 4.0 14.3 119
15/01/2020 12:50 9.5 64 245.0 292 0.0 3.6 12.8 123
15/01/2020 13:00 9.7 64 395.2 600 0.0 4.2 15.2 126
15/01/2020 13:10 10.0 62 288.8 378 0.0 4.3 15.6 129
15/01/2020 13:20 9.9 62 185.1 0 0.0 4.0 14.3 137
15/01/2020 13:30 9.8 62 165.4 0 0.0 4.5 16.2 124
15/01/2020 13:40 9.8 64 150.8 0 0.0 3.7 13.1 120
15/01/2020 13:50 9.9 64 129.2 0 0.0 3.9 13.9 122
15/01/2020 14:00 9.8 63 159.4 98 0.0 4.3 15.5 129
15/01/2020 14:10 10.2 62 213.4 582 0.0 4.5 16.3 126
15/01/2020 14:20 10.3 61 206.5 600 0.0 4.3 15.6 125
15/01/2020 14:30 10.5 61 300.7 600 0.0 4.6 16.7 125
15/01/2020 14:40 10.8 61 176.9 314 0.0 4.1 14.8 126
15/01/2020 14:50 10.7 61 151.9 88 0.0 4.8 17.3 129
15/01/2020 15:00 10.6 61 97.6 0 0.0 4.5 16.2 127
15/01/2020 15:10 10.4 63 81.5 0 0.0 3.2 11.3 110
15/01/2020 15:20 10.3 64 75.5 0 0.0 2.8 10.2 100
15/01/2020 15:30 10.3 65 70.9 0 0.0 2.6 9.4 115
15/01/2020 15:40 10.3 66 60.6 0 0.0 2.4 8.6 87
15/01/2020 15:50 10.2 66 54.2 0 0.0 2.1 7.6 71
15/01/2020 16:00 10.2 67 42.3 0 0.0 1.2 4.3 53
15/01/2020 16:10 10.2 66 34.0 0 0.0 0.6 2.3 65
15/01/2020 16:20 10.2 67 51.8 164 0.0 1.1 4.1 106
15/01/2020 16:30 10.2 66 46.2 492 0.0 2.2 8.0 127
15/01/2020 16:40 10.0 67 23.9 0 0.0 1.6 5.7 113
15/01/2020 16:50 9.7 68 11.5 0 0.0 2.1 7.5 126
15/01/2020 17:00 9.3 69 0.0 0 0.0 2.0 7.3 109
15/01/2020 17:10 8.7 71 0.0 0 0.0 2.2 7.8 82
15/01/2020 17:20 8.3 73 0.0 0 0.0 1.7 6.2 99
15/01/2020 17:30 8.1 74 0.0 0 0.0 2.5 8.9 93
15/01/2020 17:40 8.2 74 0.0 0 0.0 2.3 8.3 99
15/01/2020 17:50 7.8 74 0.0 0 0.0 2.0 7.3 104
15/01/2020 18:00 7.4 76 0.0 0 0.0 1.1 4.1 121
15/01/2020 18:10 6.8 78 0.0 0 0.0 1.6 5.8 107
15/01/2020 18:20 6.6 80 0.0 0 0.0 2.0 7.3 121
15/01/2020 18:30 6.3 81 0.0 0 0.0 1.8 6.4 106
15/01/2020 18:40 6.0 82 0.0 0 0.0 2.4 8.5 106
15/01/2020 18:50 5.7 82 0.0 0 0.0 1.6 5.7 121
15/01/2020 19:00 5.6 83 0.0 0 0.0 1.5 5.3 120
15/01/2020 19:10 5.1 84 0.0 0 0.0 2.4 8.8 113
15/01/2020 19:20 4.7 86 0.0 0 0.0 2.9 10.5 107
15/01/2020 19:30 4.5 86 0.0 0 0.0 2.8 10.2 110
15/01/2020 19:40 4.5 88 0.0 0 0.0 3.7 13.5 126
15/01/2020 19:50 4.5 88 0.0 0 0.0 3.2 11.4 121
15/01/2020 20:00 4.1 89 0.0 0 0.0 2.7 9.7 121
15/01/2020 20:10 4.1 89 0.0 0 0.0 2.7 9.8 128
15/01/2020 20:20 4.0 88 0.0 0 0.0 2.4 8.6 110
15/01/2020 20:30 3.5 89 0.0 0 0.0 1.7 6.0 126
15/01/2020 20:40 3.4 90 0.0 0 0.0 1.4 5.0 92
15/01/2020 20:50 3.3 91 0.0 0 0.0 1.7 6.0 99
15/01/2020 21:00 3.6 92 0.0 0 0.0 1.3 4.6 99
15/01/2020 21:10 3.6 91 0.0 0 0.0 1.9 6.8 111
15/01/2020 21:20 3.2 91 0.0 0 0.0 2.7 9.7 109
15/01/2020 21:30 3.2 91 0.0 0 0.0 2.4 8.7 119
15/01/2020 21:40 2.8 90 0.0 0 0.0 1.8 6.6 90
15/01/2020 21:50 2.7 92 0.0 0 0.0 2.3 8.3 102
15/01/2020 22:00 2.8 92 0.0 0 0.0 2.7 9.7 109
15/01/2020 22:10 2.7 93 0.0 0 0.0 2.5 9.0 106
15/01/2020 22:20 2.5 93 0.0 0 0.0 2.3 8.2 114
15/01/2020 22:30 2.7 93 0.0 0 0.0 2.6 9.4 110
15/01/2020 22:40 2.4 92 0.0 0 0.0 2.0 7.1 110
15/01/2020 22:50 1.9 93 0.0 0 0.0 1.9 6.7 126
15/01/2020 23:00 1.9 95 0.0 0 0.0 3.0 10.9 124
15/01/2020 23:10 2.2 95 0.0 0 0.0 3.1 11.3 124
15/01/2020 23:20 2.0 95 0.0 0 0.0 3.0 10.8 124
15/01/2020 23:30 1.9 95 0.0 0 0.0 2.7 9.8 116
15/01/2020 23:40 1.6 95 0.0 0 0.0 3.1 11.3 120
15/01/2020 23:50 1.4 95 0.0 0 0.0 3.6 12.8 119
Anterior Página 1 de 1 Siguiente

NOTA: Tipo de datos según el color:
   - Valores diarios o 10 minutos correctos
   - Valores diarios calculados a partir de un número de datos 10 minutos menor que 144 y mayor que 120, o de un número de datos semihorarios menor que 48 y mayor que 40 (caso de las estaciones de INTIA y del Ministerio)
   - Valores diez minutos estimados


Contacto        Enlaces        Aviso legal